Weather at Altisurface de Praz Sauge et Pré Vernay

Public forecast

Using degrees Celsius for public forecast. Weather courtesy of forecast.io.

Closest aviation weather report (METAR) to Altisurface de Praz Sauge et Pré Vernay

Closest report is Chambéry-Savoie Airport, 31.2 nm (57.8 km) NNW. Retrieved 2020/09/26 08:00 UTC (5 minutes ago):

LFLB 260800Z AUTO 14004KT CAVOK 11/07 Q1012 TEMPO 4000 SHRA BKN040TCU

Closest aviation forecast (TAF) to Altisurface de Praz Sauge et Pré Vernay

Closest forecast is Chambéry-Savoie Airport, 31.2 nm (57.8 km) NNW. Retrieved 2020/09/26 06:21 UTC (2 hours ago):

TAF LFLB 260500Z 2606/2706 VRB03KT 9999 SCT040 BKN060 TEMPO 2609/2618 4000 SHRA BKN040TCU PROB40 TEMPO 2612/2618 VRB15G30KT 2000 -TSRA SCT035CB